CCA1356 ZSAM-ZGSZ
Flight info
| Callsign | CCA1356 |
|---|---|
| Flight time | 0h 51m |
| Altitude | 21700 |
| Route | NUSPA W597 IKATA A470 BEBEM R200 OVGOT |
| Aircraft | B77W/H-SDE1FGHILORVWXY/L |
Departure
| Time | 2026-05-06 18:55 |
|---|---|
| Airport | Xiamen Gaoqi International Airport (ZSAM) |
Arrival
| Time | 2026-05-06 19:46 |
|---|---|
| Airport | Shenzhen Bao'an International Airport (ZGSZ) |
| Time | Latitude | Longitude | Altitude | Speed | Heading |
|---|---|---|---|---|---|
| 2026-05-06 18:29 | 24.54807 | 118.13888 | 52 ft | 0 kts | 77° |
| 2026-05-06 18:41 | 24.54806 | 118.13880 | 46 ft | 3 kts | 69° |
| 2026-05-06 18:41 | 24.54798 | 118.13863 | 46 ft | 2 kts | 61° |
| 2026-05-06 18:41 | 24.54790 | 118.13848 | 50 ft | 3 kts | 47° |
| 2026-05-06 18:42 | 24.54779 | 118.13837 | 50 ft | 3 kts | 20° |
| 2026-05-06 18:42 | 24.54768 | 118.13833 | 46 ft | 3 kts | 346° |
| 2026-05-06 18:42 | 24.54752 | 118.13840 | 48 ft | 3 kts | 324° |
| 2026-05-06 18:42 | 24.54737 | 118.13853 | 46 ft | 2 kts | 321° |
| 2026-05-06 18:43 | 24.54731 | 118.13858 | 46 ft | 0 kts | 322° |
| 2026-05-06 18:48 | 24.54760 | 118.13832 | 45 ft | 18 kts | 321° |
| 2026-05-06 18:48 | 24.54840 | 118.13765 | 52 ft | 14 kts | 323° |
| 2026-05-06 18:48 | 24.54867 | 118.13694 | 49 ft | 9 kts | 245° |
| 2026-05-06 18:48 | 24.54829 | 118.13636 | 48 ft | 10 kts | 231° |
| 2026-05-06 18:49 | 24.54762 | 118.13545 | 49 ft | 20 kts | 231° |
| 2026-05-06 18:49 | 24.54672 | 118.13420 | 49 ft | 21 kts | 232° |
| 2026-05-06 18:49 | 24.54583 | 118.13295 | 48 ft | 21 kts | 232° |
| 2026-05-06 18:49 | 24.54494 | 118.13169 | 49 ft | 21 kts | 232° |
| 2026-05-06 18:50 | 24.54405 | 118.13044 | 50 ft | 21 kts | 232° |
| 2026-05-06 18:50 | 24.54315 | 118.12919 | 50 ft | 21 kts | 232° |
| 2026-05-06 18:50 | 24.54226 | 118.12795 | 51 ft | 21 kts | 232° |
| 2026-05-06 18:50 | 24.54137 | 118.12669 | 55 ft | 21 kts | 232° |
| 2026-05-06 18:51 | 24.54049 | 118.12546 | 56 ft | 21 kts | 232° |
| 2026-05-06 18:51 | 24.53960 | 118.12421 | 54 ft | 21 kts | 232° |
| 2026-05-06 18:51 | 24.53869 | 118.12295 | 55 ft | 21 kts | 231° |
| 2026-05-06 18:51 | 24.53781 | 118.12172 | 58 ft | 21 kts | 232° |
| 2026-05-06 18:52 | 24.53691 | 118.12047 | 61 ft | 21 kts | 232° |
| 2026-05-06 18:52 | 24.53601 | 118.11920 | 67 ft | 21 kts | 232° |
| 2026-05-06 18:52 | 24.53511 | 118.11796 | 58 ft | 21 kts | 232° |
| 2026-05-06 18:52 | 24.53427 | 118.11678 | 59 ft | 19 kts | 233° |
| 2026-05-06 18:53 | 24.53399 | 118.11598 | 70 ft | 11 kts | 272° |
| 2026-05-06 18:53 | 24.53419 | 118.11519 | 64 ft | 10 kts | 297° |
| 2026-05-06 18:53 | 24.53473 | 118.11483 | 62 ft | 10 kts | 6° |
| 2026-05-06 18:53 | 24.53526 | 118.11530 | 65 ft | 8 kts | 48° |
| 2026-05-06 18:54 | 24.53545 | 118.11555 | 62 ft | 0 kts | 51° |
| 2026-05-06 18:54 | 24.53587 | 118.11613 | 59 ft | 30 kts | 51° |
| 2026-05-06 18:54 | 24.53901 | 118.12049 | 57 ft | 114 kts | 52° |
| 2026-05-06 18:55 | 24.54536 | 118.12944 | 53 ft | 180 kts | 53° |
| 2026-05-06 18:55 | 24.55337 | 118.14083 | 642 ft | 189 kts | 52° |
| 2026-05-06 18:55 | 24.56153 | 118.15225 | 1472 ft | 189 kts | 51° |
| 2026-05-06 18:55 | 24.56951 | 118.16331 | 2343 ft | 186 kts | 51° |
| 2026-05-06 18:56 | 24.57772 | 118.17473 | 2924 ft | 196 kts | 51° |
| 2026-05-06 18:56 | 24.58649 | 118.18698 | 3497 ft | 207 kts | 52° |
| 2026-05-06 18:56 | 24.59549 | 118.19957 | 4035 ft | 217 kts | 52° |
| 2026-05-06 18:56 | 24.60493 | 118.21281 | 4655 ft | 224 kts | 52° |
| 2026-05-06 18:57 | 24.61463 | 118.22647 | 5305 ft | 228 kts | 55° |
| 2026-05-06 18:57 | 24.62154 | 118.24224 | 5879 ft | 232 kts | 81° |
| 2026-05-06 18:57 | 24.62159 | 118.25968 | 6559 ft | 228 kts | 107° |
| 2026-05-06 18:57 | 24.61493 | 118.27527 | 7139 ft | 227 kts | 133° |
| 2026-05-06 18:58 | 24.60282 | 118.28623 | 7690 ft | 226 kts | 158° |
| 2026-05-06 18:58 | 24.58775 | 118.29048 | 8275 ft | 224 kts | 183° |
| 2026-05-06 18:58 | 24.57259 | 118.28743 | 8871 ft | 222 kts | 208° |
| 2026-05-06 18:58 | 24.55985 | 118.27781 | 9373 ft | 229 kts | 226° |
| 2026-05-06 18:59 | 24.54899 | 118.26397 | 9574 ft | 254 kts | 233° |
| 2026-05-06 18:59 | 24.53757 | 118.24770 | 9923 ft | 274 kts | 233° |
| 2026-05-06 18:59 | 24.52574 | 118.23086 | 10377 ft | 291 kts | 233° |
| 2026-05-06 18:59 | 24.51271 | 118.21245 | 10568 ft | 319 kts | 233° |
| 2026-05-06 19:00 | 24.49855 | 118.19239 | 10765 ft | 346 kts | 233° |
| 2026-05-06 19:00 | 24.48333 | 118.17084 | 11131 ft | 365 kts | 233° |
| 2026-05-06 19:00 | 24.46752 | 118.14852 | 11792 ft | 375 kts | 233° |
| 2026-05-06 19:00 | 24.45137 | 118.12575 | 12656 ft | 380 kts | 233° |
| 2026-05-06 19:01 | 24.43500 | 118.10270 | 13593 ft | 385 kts | 233° |
| 2026-05-06 19:01 | 24.41842 | 118.07935 | 14383 ft | 390 kts | 233° |
| 2026-05-06 19:01 | 24.40169 | 118.05580 | 15167 ft | 393 kts | 233° |
| 2026-05-06 19:01 | 24.38477 | 118.03198 | 15964 ft | 397 kts | 233° |
| 2026-05-06 19:02 | 24.36767 | 118.00794 | 16767 ft | 401 kts | 233° |
| 2026-05-06 19:02 | 24.35046 | 117.98376 | 17540 ft | 405 kts | 233° |
| 2026-05-06 19:02 | 24.33306 | 117.95934 | 18342 ft | 407 kts | 233° |
| 2026-05-06 19:02 | 24.31560 | 117.93485 | 19099 ft | 408 kts | 233° |
| 2026-05-06 19:03 | 24.29812 | 117.91035 | 19924 ft | 408 kts | 234° |
| 2026-05-06 19:03 | 24.28067 | 117.88586 | 20724 ft | 408 kts | 234° |
| 2026-05-06 19:03 | 24.26337 | 117.86163 | 21452 ft | 411 kts | 234° |
| 2026-05-06 19:03 | 24.24563 | 117.83695 | 21691 ft | 412 kts | 232° |
| 2026-05-06 19:04 | 24.22618 | 117.81382 | 21681 ft | 413 kts | 227° |
| 2026-05-06 19:04 | 24.20550 | 117.79199 | 21684 ft | 413 kts | 225° |
| 2026-05-06 19:04 | 24.18457 | 117.77054 | 21671 ft | 412 kts | 225° |
| 2026-05-06 19:04 | 24.16370 | 117.74898 | 21677 ft | 412 kts | 226° |
| 2026-05-06 19:05 | 24.14298 | 117.72723 | 21686 ft | 412 kts | 226° |
| 2026-05-06 19:05 | 24.12244 | 117.70538 | 21683 ft | 412 kts | 226° |
| 2026-05-06 19:05 | 24.10719 | 117.68906 | 21682 ft | 411 kts | 226° |
| 2026-05-06 19:05 | 24.08668 | 117.66707 | 21682 ft | 412 kts | 227° |
| 2026-05-06 19:06 | 24.06619 | 117.64513 | 21677 ft | 412 kts | 226° |
| 2026-05-06 19:06 | 24.04571 | 117.62323 | 21679 ft | 411 kts | 226° |
| 2026-05-06 19:06 | 24.02547 | 117.60154 | 21680 ft | 411 kts | 227° |
| 2026-05-06 19:06 | 24.00503 | 117.57961 | 21670 ft | 411 kts | 227° |
| 2026-05-06 19:07 | 23.98456 | 117.55766 | 21683 ft | 411 kts | 227° |
| 2026-05-06 19:07 | 23.96416 | 117.53579 | 21680 ft | 411 kts | 226° |
| 2026-05-06 19:07 | 23.94369 | 117.51386 | 21669 ft | 411 kts | 226° |
| 2026-05-06 19:07 | 23.92330 | 117.49203 | 21676 ft | 411 kts | 226° |
| 2026-05-06 19:08 | 23.90288 | 117.47017 | 21677 ft | 411 kts | 226° |
| 2026-05-06 19:08 | 23.88245 | 117.44832 | 21678 ft | 411 kts | 226° |
| 2026-05-06 19:08 | 23.86455 | 117.42847 | 21674 ft | 409 kts | 231° |
| 2026-05-06 19:08 | 23.84780 | 117.40352 | 21675 ft | 407 kts | 240° |
| 2026-05-06 19:09 | 23.83423 | 117.37640 | 21675 ft | 407 kts | 246° |
| 2026-05-06 19:09 | 23.82412 | 117.34767 | 21680 ft | 405 kts | 253° |
| 2026-05-06 19:09 | 23.81598 | 117.31816 | 21678 ft | 405 kts | 254° |
| 2026-05-06 19:09 | 23.80799 | 117.28863 | 21675 ft | 406 kts | 254° |
| 2026-05-06 19:10 | 23.79988 | 117.25911 | 21678 ft | 406 kts | 253° |
| 2026-05-06 19:10 | 23.79161 | 117.22961 | 21678 ft | 406 kts | 253° |
| 2026-05-06 19:10 | 23.78336 | 117.20049 | 21681 ft | 407 kts | 253° |
| 2026-05-06 19:10 | 23.77459 | 117.17115 | 21683 ft | 407 kts | 249° |
| 2026-05-06 19:11 | 23.76224 | 117.14329 | 21675 ft | 408 kts | 241° |
| 2026-05-06 19:11 | 23.74689 | 117.11724 | 21682 ft | 409 kts | 235° |
| 2026-05-06 19:11 | 23.72864 | 117.09324 | 21676 ft | 411 kts | 228° |
| 2026-05-06 19:11 | 23.70885 | 117.07074 | 21685 ft | 411 kts | 227° |
| 2026-05-06 19:12 | 23.68890 | 117.04847 | 21674 ft | 411 kts | 227° |
| 2026-05-06 19:12 | 23.66882 | 117.02607 | 21677 ft | 412 kts | 227° |
| 2026-05-06 19:12 | 23.64888 | 117.00369 | 21671 ft | 412 kts | 227° |
| 2026-05-06 19:12 | 23.62897 | 116.98124 | 21672 ft | 412 kts | 227° |
| 2026-05-06 19:13 | 23.60908 | 116.95872 | 21678 ft | 412 kts | 228° |
| 2026-05-06 19:13 | 23.58925 | 116.93621 | 21674 ft | 412 kts | 228° |
| 2026-05-06 19:13 | 23.56939 | 116.91367 | 21673 ft | 411 kts | 228° |
| 2026-05-06 19:13 | 23.54954 | 116.89114 | 21678 ft | 411 kts | 228° |
| 2026-05-06 19:14 | 23.52970 | 116.86863 | 21666 ft | 411 kts | 227° |
| 2026-05-06 19:14 | 23.50987 | 116.84614 | 21675 ft | 411 kts | 227° |
| 2026-05-06 19:14 | 23.49000 | 116.82362 | 21664 ft | 412 kts | 227° |
| 2026-05-06 19:14 | 23.47041 | 116.80143 | 21677 ft | 412 kts | 227° |
| 2026-05-06 19:15 | 23.45051 | 116.77897 | 21664 ft | 412 kts | 227° |
| 2026-05-06 19:15 | 23.42955 | 116.75776 | 21674 ft | 413 kts | 221° |
| 2026-05-06 19:15 | 23.40674 | 116.73857 | 21675 ft | 414 kts | 219° |
| 2026-05-06 19:15 | 23.38378 | 116.71970 | 21674 ft | 414 kts | 219° |
| 2026-05-06 19:16 | 23.36081 | 116.70084 | 21666 ft | 414 kts | 219° |
| 2026-05-06 19:16 | 23.33780 | 116.68190 | 21669 ft | 414 kts | 219° |
| 2026-05-06 19:16 | 23.31485 | 116.66294 | 21671 ft | 414 kts | 219° |
| 2026-05-06 19:16 | 23.29192 | 116.64396 | 21666 ft | 414 kts | 219° |
| 2026-05-06 19:17 | 23.26897 | 116.62493 | 21660 ft | 414 kts | 219° |
| 2026-05-06 19:17 | 23.24607 | 116.60593 | 21668 ft | 415 kts | 219° |
| 2026-05-06 19:17 | 23.22336 | 116.58709 | 21656 ft | 415 kts | 219° |
| 2026-05-06 19:17 | 23.20023 | 116.56792 | 21668 ft | 415 kts | 219° |
| 2026-05-06 19:18 | 23.17724 | 116.54887 | 21669 ft | 415 kts | 219° |
| 2026-05-06 19:18 | 23.09796 | 116.48324 | 21667 ft | 415 kts | 219° |
| 2026-05-06 19:18 | 23.00594 | 116.40719 | 21668 ft | 415 kts | 219° |
| 2026-05-06 19:18 | 22.94322 | 116.30861 | 21641 ft | 409 kts | 263° |
| 2026-05-06 19:19 | 22.93659 | 116.23432 | 21698 ft | 408 kts | 264° |
| 2026-05-06 19:19 | 22.92293 | 116.09819 | 21660 ft | 410 kts | 263° |
| 2026-05-06 19:19 | 22.91026 | 115.97511 | 21668 ft | 410 kts | 263° |
| 2026-05-06 19:19 | 22.89875 | 115.85962 | 21667 ft | 411 kts | 263° |
| 2026-05-06 19:20 | 22.88631 | 115.73555 | 21670 ft | 411 kts | 263° |
| 2026-05-06 19:20 | 22.87385 | 115.61227 | 21656 ft | 412 kts | 263° |
| 2026-05-06 19:20 | 22.86961 | 115.57056 | 21654 ft | 412 kts | 263° |
| 2026-05-06 19:20 | 22.85889 | 115.46554 | 21665 ft | 411 kts | 263° |
| 2026-05-06 19:21 | 22.84834 | 115.36279 | 21670 ft | 411 kts | 263° |
| 2026-05-06 19:21 | 22.84502 | 115.33066 | 21669 ft | 411 kts | 263° |
| 2026-05-06 19:21 | 22.84185 | 115.30000 | 21642 ft | 407 kts | 263° |
| 2026-05-06 19:21 | 22.83872 | 115.26973 | 21558 ft | 399 kts | 263° |
| 2026-05-06 19:22 | 22.83566 | 115.24018 | 21429 ft | 391 kts | 263° |
| 2026-05-06 19:22 | 22.83368 | 115.22115 | 21288 ft | 389 kts | 263° |
| 2026-05-06 19:22 | 22.83066 | 115.19208 | 20981 ft | 387 kts | 263° |
| 2026-05-06 19:22 | 22.82804 | 115.16697 | 20683 ft | 387 kts | 263° |
| 2026-05-06 19:23 | 22.82494 | 115.13723 | 20350 ft | 386 kts | 263° |
| 2026-05-06 19:23 | 22.82191 | 115.10838 | 20069 ft | 385 kts | 263° |
| 2026-05-06 19:23 | 22.81891 | 115.07975 | 19809 ft | 383 kts | 263° |
| 2026-05-06 19:23 | 22.81591 | 115.05116 | 19549 ft | 381 kts | 263° |
| 2026-05-06 19:24 | 22.81291 | 115.02260 | 19258 ft | 380 kts | 263° |
| 2026-05-06 19:24 | 22.81093 | 115.00381 | 19087 ft | 379 kts | 263° |
| 2026-05-06 19:24 | 22.80694 | 114.96594 | 18740 ft | 377 kts | 263° |
| 2026-05-06 19:24 | 22.80497 | 114.94725 | 18566 ft | 376 kts | 263° |
| 2026-05-06 19:25 | 22.80199 | 114.91913 | 18317 ft | 375 kts | 263° |
| 2026-05-06 19:25 | 22.79902 | 114.89112 | 18034 ft | 374 kts | 263° |
| 2026-05-06 19:25 | 22.79606 | 114.86314 | 17744 ft | 373 kts | 263° |
| 2026-05-06 19:25 | 22.79315 | 114.83579 | 17496 ft | 371 kts | 263° |
| 2026-05-06 19:26 | 22.79020 | 114.80806 | 17232 ft | 369 kts | 263° |
| 2026-05-06 19:26 | 22.78725 | 114.78049 | 16971 ft | 368 kts | 263° |
| 2026-05-06 19:26 | 22.78432 | 114.75303 | 16710 ft | 366 kts | 263° |
| 2026-05-06 19:26 | 22.78144 | 114.72560 | 16454 ft | 365 kts | 263° |
| 2026-05-06 19:27 | 22.77771 | 114.68949 | 16132 ft | 363 kts | 263° |
| 2026-05-06 19:27 | 22.77582 | 114.67121 | 15962 ft | 362 kts | 263° |
| 2026-05-06 19:27 | 22.77324 | 114.64619 | 15766 ft | 360 kts | 263° |
| 2026-05-06 19:27 | 22.77047 | 114.61938 | 15719 ft | 358 kts | 263° |
| 2026-05-06 19:28 | 22.76769 | 114.59259 | 15674 ft | 359 kts | 263° |
| 2026-05-06 19:28 | 22.76488 | 114.56566 | 15661 ft | 360 kts | 263° |
| 2026-05-06 19:28 | 22.76205 | 114.53867 | 15660 ft | 362 kts | 263° |
| 2026-05-06 19:28 | 22.75928 | 114.51187 | 15652 ft | 362 kts | 263° |
| 2026-05-06 19:29 | 22.75682 | 114.48795 | 15665 ft | 362 kts | 263° |
| 2026-05-06 19:29 | 22.75403 | 114.46083 | 15654 ft | 363 kts | 263° |
| 2026-05-06 19:29 | 22.75124 | 114.43373 | 15660 ft | 362 kts | 263° |
| 2026-05-06 19:29 | 22.74844 | 114.40659 | 15658 ft | 362 kts | 263° |
| 2026-05-06 19:30 | 22.74565 | 114.37951 | 15654 ft | 361 kts | 263° |
| 2026-05-06 19:30 | 22.74285 | 114.35246 | 15664 ft | 361 kts | 263° |
| 2026-05-06 19:30 | 22.74003 | 114.32538 | 15664 ft | 361 kts | 263° |
| 2026-05-06 19:30 | 22.73725 | 114.29842 | 15664 ft | 360 kts | 263° |
| 2026-05-06 19:31 | 22.73450 | 114.27162 | 15608 ft | 349 kts | 263° |
| 2026-05-06 19:31 | 22.73194 | 114.24656 | 15430 ft | 321 kts | 263° |
| 2026-05-06 19:31 | 22.72742 | 114.20247 | 15048 ft | 272 kts | 263° |
| 2026-05-06 19:32 | 22.72533 | 114.18228 | 14387 ft | 269 kts | 262° |
| 2026-05-06 19:32 | 22.72324 | 114.16213 | 13669 ft | 270 kts | 262° |
| 2026-05-06 19:32 | 22.72114 | 114.14190 | 12985 ft | 274 kts | 262° |
| 2026-05-06 19:32 | 22.71904 | 114.12171 | 12706 ft | 270 kts | 263° |
| 2026-05-06 19:33 | 22.71709 | 114.10282 | 12479 ft | 266 kts | 262° |
| 2026-05-06 19:33 | 22.71505 | 114.08324 | 12180 ft | 264 kts | 262° |
| 2026-05-06 19:33 | 22.71299 | 114.06346 | 11843 ft | 264 kts | 262° |
| 2026-05-06 19:33 | 22.71093 | 114.04371 | 11542 ft | 262 kts | 263° |
| 2026-05-06 19:34 | 22.71156 | 114.02414 | 11127 ft | 263 kts | 280° |
| 2026-05-06 19:34 | 22.71603 | 114.00484 | 10786 ft | 265 kts | 282° |
| 2026-05-06 19:34 | 22.72054 | 113.98557 | 10497 ft | 262 kts | 282° |
| 2026-05-06 19:34 | 22.72489 | 113.96650 | 10234 ft | 260 kts | 282° |
| 2026-05-06 19:35 | 22.72916 | 113.94754 | 9952 ft | 259 kts | 281° |
| 2026-05-06 19:35 | 22.73335 | 113.92863 | 9637 ft | 258 kts | 281° |
| 2026-05-06 19:35 | 22.73753 | 113.90970 | 9314 ft | 258 kts | 281° |
| 2026-05-06 19:35 | 22.74168 | 113.89083 | 8982 ft | 257 kts | 281° |
| 2026-05-06 19:36 | 22.74599 | 113.87212 | 8665 ft | 254 kts | 287° |
| 2026-05-06 19:36 | 22.75552 | 113.85591 | 8198 ft | 263 kts | 315° |
| 2026-05-06 19:36 | 22.77099 | 113.84519 | 7904 ft | 264 kts | 331° |
| 2026-05-06 19:36 | 22.78725 | 113.83646 | 7715 ft | 258 kts | 330° |
| 2026-05-06 19:37 | 22.80319 | 113.82778 | 7491 ft | 254 kts | 330° |
| 2026-05-06 19:37 | 22.81875 | 113.81926 | 7328 ft | 247 kts | 330° |
| 2026-05-06 19:37 | 22.83385 | 113.81097 | 7157 ft | 240 kts | 330° |
| 2026-05-06 19:37 | 22.84851 | 113.80286 | 6947 ft | 235 kts | 329° |
| 2026-05-06 19:38 | 22.86294 | 113.79475 | 6680 ft | 233 kts | 329° |
| 2026-05-06 19:38 | 22.87733 | 113.78665 | 6365 ft | 233 kts | 329° |
| 2026-05-06 19:38 | 22.89171 | 113.77855 | 6041 ft | 232 kts | 331° |
| 2026-05-06 19:38 | 22.90492 | 113.76907 | 5624 ft | 227 kts | 308° |
| 2026-05-06 19:39 | 22.91144 | 113.75415 | 5214 ft | 223 kts | 273° |
| 2026-05-06 19:39 | 22.91000 | 113.73784 | 4920 ft | 216 kts | 249° |
| 2026-05-06 19:39 | 22.90398 | 113.72339 | 4770 ft | 205 kts | 241° |
| 2026-05-06 19:39 | 22.89745 | 113.70994 | 4582 ft | 198 kts | 240° |
| 2026-05-06 19:40 | 22.89116 | 113.69703 | 4421 ft | 189 kts | 240° |
| 2026-05-06 19:40 | 22.88456 | 113.68487 | 4233 ft | 188 kts | 226° |
| 2026-05-06 19:40 | 22.87369 | 113.67701 | 4096 ft | 191 kts | 197° |
| 2026-05-06 19:40 | 22.86057 | 113.67699 | 3968 ft | 192 kts | 164° |
| 2026-05-06 19:41 | 22.84795 | 113.68170 | 3891 ft | 193 kts | 162° |
| 2026-05-06 19:41 | 22.83517 | 113.68664 | 3769 ft | 195 kts | 159° |
| 2026-05-06 19:41 | 22.82264 | 113.69247 | 3566 ft | 197 kts | 156° |
| 2026-05-06 19:41 | 22.81038 | 113.69895 | 3340 ft | 194 kts | 154° |
| 2026-05-06 19:42 | 22.79861 | 113.70539 | 3098 ft | 191 kts | 154° |
| 2026-05-06 19:42 | 22.78685 | 113.71188 | 2849 ft | 188 kts | 154° |
| 2026-05-06 19:42 | 22.77534 | 113.71824 | 2604 ft | 183 kts | 154° |
| 2026-05-06 19:42 | 22.76441 | 113.72427 | 2424 ft | 168 kts | 154° |
| 2026-05-06 19:43 | 22.75432 | 113.72984 | 2166 ft | 157 kts | 154° |
| 2026-05-06 19:43 | 22.74498 | 113.73499 | 1964 ft | 145 kts | 153° |
| 2026-05-06 19:43 | 22.73606 | 113.73991 | 1802 ft | 145 kts | 153° |
| 2026-05-06 19:43 | 22.72710 | 113.74484 | 1609 ft | 142 kts | 153° |
| 2026-05-06 19:44 | 22.71828 | 113.74971 | 1410 ft | 143 kts | 153° |
| 2026-05-06 19:44 | 22.70948 | 113.75457 | 1238 ft | 144 kts | 152° |
| 2026-05-06 19:44 | 22.70052 | 113.75949 | 1043 ft | 145 kts | 152° |
| 2026-05-06 19:44 | 22.69147 | 113.76450 | 829 ft | 147 kts | 152° |
| 2026-05-06 19:45 | 22.68229 | 113.76952 | 652 ft | 149 kts | 152° |
| 2026-05-06 19:45 | 22.67295 | 113.77468 | 458 ft | 152 kts | 152° |
| 2026-05-06 19:45 | 22.66355 | 113.77986 | 253 ft | 151 kts | 153° |
| 2026-05-06 19:45 | 22.65420 | 113.78501 | 60 ft | 150 kts | 153° |
| 2026-05-06 19:46 | 22.64535 | 113.78989 | 25 ft | 130 kts | 153° |
| 2026-05-06 19:46 | 22.63892 | 113.79343 | 23 ft | 77 kts | 153° |
| 2026-05-06 19:46 | 22.63538 | 113.79538 | 23 ft | 51 kts | 153° |
| 2026-05-06 19:46 | 22.63278 | 113.79705 | 21 ft | 35 kts | 137° |
| 2026-05-06 19:47 | 22.63166 | 113.79878 | 20 ft | 18 kts | 102° |
| 2026-05-06 19:47 | 22.63200 | 113.79983 | 20 ft | 0 kts | 62° |
| 2026-05-06 19:50 | 22.63201 | 113.79984 | 20 ft | 1 kts | 62° |
| 2026-05-06 19:50 | 22.63220 | 113.80008 | 20 ft | 7 kts | 26° |
| 2026-05-06 19:51 | 22.63296 | 113.79992 | 20 ft | 16 kts | 336° |
| 2026-05-06 19:51 | 22.63403 | 113.79932 | 24 ft | 18 kts | 332° |
| 2026-05-06 19:51 | 22.63501 | 113.79884 | 20 ft | 12 kts | 353° |
| 2026-05-06 19:51 | 22.63560 | 113.79932 | 21 ft | 10 kts | 56° |
| 2026-05-06 19:52 | 22.63593 | 113.80000 | 21 ft | 10 kts | 63° |
| 2026-05-06 19:52 | 22.63624 | 113.80066 | 20 ft | 10 kts | 63° |
| 2026-05-06 19:52 | 22.63654 | 113.80129 | 23 ft | 9 kts | 63° |
| 2026-05-06 19:52 | 22.63682 | 113.80190 | 20 ft | 9 kts | 64° |
| 2026-05-06 19:53 | 22.63707 | 113.80249 | 20 ft | 8 kts | 72° |
| 2026-05-06 19:53 | 22.63683 | 113.80292 | 20 ft | 7 kts | 147° |
| 2026-05-06 19:53 | 22.63637 | 113.80317 | 20 ft | 6 kts | 153° |
| 2026-05-06 19:53 | 22.63613 | 113.80330 | 20 ft | 0 kts | 153° |